createdAt,value
2022-12-08T00:01:49.700Z,101031.66
2022-12-08T00:04:16.484Z,101027.47
2022-12-08T00:07:02.396Z,101026.31
2022-12-08T00:09:39.042Z,101018.16
2022-12-08T00:12:07.960Z,101020.84
2022-12-08T00:14:43.032Z,101022.34
2022-12-08T00:17:10.998Z,101015.88
2022-12-08T00:19:39.195Z,101013.19
2022-12-08T00:22:07.032Z,100993.16
2022-12-08T00:24:38.356Z,100992.09
2022-12-08T00:27:05.083Z,100996.59
2022-12-08T00:29:31.478Z,101000.25
2022-12-08T00:31:57.978Z,100983.56
2022-12-08T00:34:24.570Z,100982.19
2022-12-08T00:36:51.000Z,100970.97
2022-12-08T00:39:17.902Z,100964.97
2022-12-08T00:42:03.062Z,100969.47
2022-12-08T00:44:29.547Z,100976.31
2022-12-08T00:46:56.002Z,100983.34
2022-12-08T00:49:22.913Z,100978.31
2022-12-08T00:51:49.364Z,100966.81
2022-12-08T00:54:16.071Z,100960.47
2022-12-08T00:56:42.626Z,100963.22
2022-12-08T00:59:09.985Z,100965.56
2022-12-08T01:01:36.871Z,100962.91
2022-12-08T01:04:08.869Z,100955.88
2022-12-08T01:06:35.511Z,100954.91
2022-12-08T01:09:03.473Z,100957.56
2022-12-08T01:11:29.871Z,100958.53
2022-12-08T01:13:56.389Z,100948.19
2022-12-08T01:16:28.671Z,100946.06
2022-12-08T01:18:56.506Z,100945.91
2022-12-08T01:21:22.960Z,100943.41
2022-12-08T01:23:49.364Z,100944.88
2022-12-08T01:26:17.325Z,100946.56
2022-12-08T01:28:44.345Z,100950.22
2022-12-08T01:31:20.107Z,100943.22
2022-12-08T01:33:47.721Z,100945.91
2022-12-08T01:36:21.242Z,100942.53
2022-12-08T01:38:47.732Z,100944.53
2022-12-08T01:41:19.898Z,100941.16
2022-12-08T01:44:02.484Z,100952.84
2022-12-08T01:46:31.208Z,100945.13
2022-12-08T01:49:17.663Z,100946.84
2022-12-08T01:51:54.866Z,100940.66
2022-12-08T01:54:26.357Z,100940.34
2022-12-08T01:57:00.731Z,100936.16
2022-12-08T01:59:28.666Z,100936.00
2022-12-08T02:01:55.522Z,100928.16
2022-12-08T02:04:21.937Z,100927.63
2022-12-08T02:06:49.983Z,100920.28
2022-12-08T02:09:16.584Z,100921.81
2022-12-08T02:11:43.011Z,100925.31
2022-12-08T02:14:13.555Z,100918.31
2022-12-08T02:16:50.992Z,100914.00
2022-12-08T02:19:39.102Z,100918.31
2022-12-08T02:22:24.079Z,100931.50
2022-12-08T02:25:14.802Z,100935.00
2022-12-08T02:27:41.526Z,100925.69
2022-12-08T02:30:22.757Z,100911.97
2022-12-08T02:33:00.997Z,100910.69
2022-12-08T02:35:44.014Z,100900.53
2022-12-08T02:38:16.615Z,100893.72
2022-12-08T02:41:16.983Z,100891.59
2022-12-08T02:44:00.216Z,100887.25
2022-12-08T02:46:55.897Z,100887.09
2022-12-08T02:49:28.172Z,100885.25
2022-12-08T02:52:05.448Z,100878.25
2022-12-08T02:54:33.128Z,100879.09
2022-12-08T02:57:15.528Z,100871.91
2022-12-08T03:00:09.332Z,100867.28
2022-12-08T03:03:06.899Z,100866.09
2022-12-08T03:06:01.957Z,100861.47
2022-12-08T03:08:39.265Z,100855.97
2022-12-08T03:11:20.337Z,100871.66
2022-12-08T03:13:51.744Z,100874.31
2022-12-08T03:16:24.393Z,100872.97
2022-12-08T03:19:06.053Z,100868.47
2022-12-08T03:21:35.698Z,100862.44
2022-12-08T03:24:07.072Z,100853.25
2022-12-08T03:26:48.476Z,100842.06
2022-12-08T03:29:15.053Z,100848.22
2022-12-08T03:31:49.275Z,100840.91
2022-12-08T03:34:18.045Z,100833.56
2022-12-08T03:36:45.134Z,100834.25
2022-12-08T03:39:12.094Z,100817.94
2022-12-08T03:41:38.489Z,100829.28
2022-12-08T03:44:05.110Z,100821.97
2022-12-08T03:46:31.999Z,100820.97
2022-12-08T03:48:58.448Z,100814.81
2022-12-08T03:51:25.420Z,100820.13
2022-12-08T03:53:51.843Z,100807.47
2022-12-08T03:56:36.348Z,100800.97
2022-12-08T03:59:03.410Z,100808.81
2022-12-08T04:01:29.903Z,100801.81
2022-12-08T04:03:56.512Z,100798.31
2022-12-08T04:06:23.245Z,100808.16
2022-12-08T04:08:50.458Z,100814.31
2022-12-08T04:11:18.263Z,100819.47
2022-12-08T04:13:45.069Z,100821.31
2022-12-08T04:16:17.734Z,100825.00
2022-12-08T04:18:44.822Z,100823.13
2022-12-08T04:21:11.653Z,100830.84
2022-12-08T04:23:38.059Z,100826.72
2022-12-08T04:26:05.404Z,100826.31
2022-12-08T04:28:32.035Z,100818.00
2022-12-08T04:30:58.580Z,100817.47
2022-12-08T04:33:25.072Z,100809.13
2022-12-08T04:35:51.485Z,100803.63
2022-12-08T04:38:17.918Z,100804.63
2022-12-08T04:40:44.611Z,100809.13
2022-12-08T04:43:11.160Z,100808.25
2022-12-08T04:45:40.435Z,100812.97
2022-12-08T04:48:07.541Z,100811.50
2022-12-08T04:50:33.938Z,100807.53
2022-12-08T04:53:00.365Z,100809.75
2022-12-08T04:55:26.783Z,100798.94
2022-12-08T04:57:53.204Z,100807.44
2022-12-08T05:00:19.839Z,100804.63
2022-12-08T05:02:46.423Z,100805.31
2022-12-08T05:05:12.855Z,100793.63
2022-12-08T05:07:39.527Z,100797.31
2022-12-08T05:10:07.060Z,100790.63
2022-12-08T05:12:33.880Z,100789.44
2022-12-08T05:15:00.326Z,100788.31
2022-12-08T05:17:26.665Z,100792.63
2022-12-08T05:19:53.225Z,100788.84
2022-12-08T05:22:19.621Z,100791.31
2022-12-08T05:24:47.797Z,100788.84
2022-12-08T05:27:14.744Z,100788.00
2022-12-08T05:29:41.144Z,100785.47
2022-12-08T05:32:07.668Z,100789.66
2022-12-08T05:34:34.119Z,100789.84
2022-12-08T05:37:00.551Z,100786.16
2022-12-08T05:39:27.118Z,100789.97
2022-12-08T05:41:53.562Z,100791.63
2022-12-08T05:44:19.976Z,100798.97
2022-12-08T05:46:46.386Z,100785.94
2022-12-08T05:49:12.835Z,100781.63
2022-12-08T05:51:39.216Z,100780.09
2022-12-08T05:54:05.626Z,100778.59
2022-12-08T05:56:32.081Z,100771.44
2022-12-08T05:58:58.440Z,100772.75
2022-12-08T06:01:27.569Z,100765.88
2022-12-08T06:03:54.498Z,100766.88
2022-12-08T06:06:21.011Z,100770.38
2022-12-08T06:08:47.460Z,100764.38
2022-12-08T06:11:25.729Z,100759.06
2022-12-08T06:13:52.603Z,100765.53
2022-12-08T06:16:20.026Z,100763.53
2022-12-08T06:18:46.544Z,100763.38
2022-12-08T06:21:14.743Z,100757.34
2022-12-08T06:23:41.903Z,100761.03
2022-12-08T06:26:11.759Z,100766.34
2022-12-08T06:28:40.456Z,100765.34
2022-12-08T06:31:09.351Z,100750.53
2022-12-08T06:33:36.795Z,100759.34
2022-12-08T06:36:04.526Z,100755.84
2022-12-08T06:38:31.267Z,100757.84
2022-12-08T06:40:58.728Z,100768.50
2022-12-08T06:43:25.846Z,100765.81
2022-12-08T06:45:52.742Z,100766.00
2022-12-08T06:48:19.608Z,100764.47
2022-12-08T06:50:46.165Z,100767.97
2022-12-08T06:53:16.608Z,100768.28
2022-12-08T06:55:59.179Z,100770.94
2022-12-08T06:58:26.266Z,100772.94
2022-12-08T07:00:53.424Z,100773.09
2022-12-08T07:03:19.865Z,100768.91
2022-12-08T07:05:46.550Z,100772.88
2022-12-08T07:08:13.022Z,100779.22
2022-12-08T07:10:39.743Z,100779.03
2022-12-08T07:13:06.164Z,100782.72
2022-12-08T07:15:32.588Z,100796.34
2022-12-08T07:18:00.326Z,100791.19
2022-12-08T07:20:27.155Z,100793.00
2022-12-08T07:22:53.905Z,100792.16
2022-12-08T07:25:20.535Z,100793.31
2022-12-08T07:27:47.184Z,100795.81
2022-12-08T07:30:14.156Z,100800.13
2022-12-08T07:32:40.772Z,100793.97
2022-12-08T07:35:08.233Z,100797.63
2022-12-08T07:37:35.800Z,100803.97
2022-12-08T07:40:02.600Z,100797.63
2022-12-08T07:42:29.420Z,100792.47
2022-12-08T07:44:55.931Z,100780.97
2022-12-08T07:47:22.312Z,100784.31
2022-12-08T07:49:48.769Z,100775.66
2022-12-08T07:52:15.228Z,100774.78
2022-12-08T07:54:41.617Z,100785.44
2022-12-08T07:57:09.543Z,100786.63
2022-12-08T07:59:35.904Z,100768.09
2022-12-08T08:02:22.706Z,100774.78
2022-12-08T08:04:51.815Z,100773.66
2022-12-08T08:07:18.293Z,100768.16
2022-12-08T08:09:45.591Z,100774.19
2022-12-08T08:12:30.952Z,100778.38
2022-12-08T08:14:59.538Z,100780.03
2022-12-08T08:17:26.013Z,100776.22
2022-12-08T08:19:52.550Z,100785.91
2022-12-08T08:22:18.957Z,100788.56
2022-12-08T08:24:45.464Z,100799.91
2022-12-08T08:27:12.067Z,100794.56
2022-12-08T08:29:38.512Z,100796.22
2022-12-08T08:32:04.992Z,100791.59
2022-12-08T08:34:31.416Z,100790.91
2022-12-08T08:36:57.922Z,100786.25
2022-12-08T08:39:24.416Z,100782.59
2022-12-08T08:41:50.823Z,100784.13
2022-12-08T08:44:17.356Z,100784.97
2022-12-08T08:46:43.807Z,100775.88
2022-12-08T08:49:10.225Z,100785.22
2022-12-08T08:51:38.581Z,100782.88
2022-12-08T08:54:05.044Z,100785.00
2022-12-08T08:56:31.659Z,100789.00
2022-12-08T08:58:58.156Z,100792.34
2022-12-08T09:01:26.820Z,100798.34
2022-12-08T09:03:54.693Z,100794.69
2022-12-08T09:06:21.753Z,100798.19
2022-12-08T09:08:49.028Z,100807.69
2022-12-08T09:11:16.063Z,100813.72
2022-12-08T09:13:42.496Z,100812.50
2022-12-08T09:16:10.750Z,100814.66
2022-12-08T09:18:37.423Z,100809.63
2022-12-08T09:21:05.517Z,100805.59
2022-12-08T09:23:35.369Z,100796.22
2022-12-08T09:26:03.224Z,100800.06
2022-12-08T09:28:29.676Z,100792.91
2022-12-08T09:30:56.175Z,100793.44
2022-12-08T09:33:22.723Z,100790.59
2022-12-08T09:35:49.259Z,100793.13
2022-12-08T09:38:15.937Z,100793.13
2022-12-08T09:40:54.140Z,100790.28
2022-12-08T09:43:51.511Z,100800.78
2022-12-08T09:46:19.195Z,100799.28
2022-12-08T09:48:55.578Z,100798.91
2022-12-08T09:51:27.435Z,100799.06
2022-12-08T09:53:59.922Z,100801.72
2022-12-08T09:56:36.143Z,100794.88
2022-12-08T09:59:14.582Z,100797.41
2022-12-08T10:01:43.937Z,100803.03
2022-12-08T10:04:25.527Z,100800.00
2022-12-08T10:07:05.279Z,100796.34
2022-12-08T10:09:34.639Z,100789.47
2022-12-08T10:12:26.475Z,100787.28
2022-12-08T10:15:23.612Z,100782.41
2022-12-08T10:17:53.721Z,100780.22
2022-12-08T10:20:24.480Z,100775.44
2022-12-08T10:23:02.457Z,100765.91
2022-12-08T10:25:36.267Z,100761.75
2022-12-08T10:28:02.974Z,100761.41
2022-12-08T10:30:31.829Z,100755.78
2022-12-08T10:32:58.471Z,100753.94
2022-12-08T10:35:25.323Z,100754.13
2022-12-08T10:37:59.894Z,100749.91
2022-12-08T10:40:39.253Z,100749.09
2022-12-08T10:43:17.484Z,100751.44
2022-12-08T10:45:44.875Z,100742.97
2022-12-08T10:48:39.420Z,100732.84
2022-12-08T10:51:22.597Z,100733.31
2022-12-08T10:53:48.960Z,100739.31
2022-12-08T10:56:16.423Z,100729.84
2022-12-08T10:58:45.218Z,100734.53
2022-12-08T11:01:21.913Z,100738.53
2022-12-08T11:04:02.717Z,100736.56
2022-12-08T11:06:29.078Z,100735.41
2022-12-08T11:08:56.740Z,100734.56
2022-12-08T11:11:51.059Z,100725.56
2022-12-08T11:14:25.497Z,100726.97
2022-12-08T11:17:04.663Z,100729.88
2022-12-08T11:19:31.214Z,100721.34
2022-12-08T11:21:57.602Z,100719.38
2022-12-08T11:24:28.588Z,100721.88
2022-12-08T11:27:02.376Z,100711.91
2022-12-08T11:29:32.039Z,100717.06
2022-12-08T11:32:07.387Z,100709.38
2022-12-08T11:35:02.499Z,100709.03
2022-12-08T11:37:35.661Z,100707.69
2022-12-08T11:40:07.981Z,100704.88
2022-12-08T11:42:44.678Z,100711.50
2022-12-08T11:45:24.378Z,100705.22
2022-12-08T11:48:04.594Z,100715.19
2022-12-08T11:51:12.052Z,100711.47
2022-12-08T11:54:03.557Z,100704.00
2022-12-08T11:56:36.430Z,100705.34
2022-12-08T11:59:16.324Z,100699.41
2022-12-08T12:01:42.966Z,100697.91
2022-12-08T12:04:15.103Z,100695.28
2022-12-08T12:06:55.192Z,100693.97
2022-12-08T12:09:34.144Z,100699.16
2022-12-08T12:12:34.935Z,100699.81
2022-12-08T12:15:27.407Z,100692.16
2022-12-08T12:18:03.632Z,100706.88
2022-12-08T12:20:56.048Z,100703.41
2022-12-08T12:23:58.554Z,100697.44
2022-12-08T12:26:28.537Z,100692.63
2022-12-08T12:29:04.385Z,100684.44
2022-12-08T12:31:35.968Z,100689.13
2022-12-08T12:34:11.484Z,100686.59
2022-12-08T12:36:57.472Z,100690.91
2022-12-08T12:39:31.320Z,100689.75
2022-12-08T12:42:01.029Z,100686.56
2022-12-08T12:44:33.273Z,100688.38
2022-12-08T12:47:02.515Z,100685.03
2022-12-08T12:49:41.170Z,100683.50
2022-12-08T12:52:16.834Z,100679.63
2022-12-08T12:54:44.022Z,100678.44
2022-12-08T12:57:10.329Z,100678.44
2022-12-08T12:59:55.947Z,100674.59
2022-12-08T13:02:28.420Z,100673.25
2022-12-08T13:05:00.818Z,100669.41
2022-12-08T13:07:34.230Z,100667.28
2022-12-08T13:10:17.780Z,100665.44
2022-12-08T13:12:45.543Z,100664.81
2022-12-08T13:15:22.299Z,100667.47
2022-12-08T13:17:49.220Z,100665.28
2022-12-08T13:20:22.768Z,100668.94
2022-12-08T13:22:49.468Z,100675.13
2022-12-08T13:25:40.594Z,100672.13
2022-12-08T13:28:16.097Z,100682.78
2022-12-08T13:30:54.076Z,100683.13
2022-12-08T13:33:39.296Z,100681.44
2022-12-08T13:36:19.700Z,100675.44
2022-12-08T13:38:48.066Z,100668.91
2022-12-08T13:41:22.194Z,100665.19
2022-12-08T13:44:50.367Z,100667.63
2022-12-08T13:47:25.123Z,100663.78
2022-12-08T13:51:23.909Z,100657.19
2022-12-08T13:58:34.486Z,100653.09
2022-12-08T14:01:14.804Z,100652.41
2022-12-08T14:04:31.003Z,100654.22
2022-12-08T14:06:45.385Z,100650.88
2022-12-08T14:09:17.007Z,100642.56
2022-12-08T14:11:47.808Z,100645.75
2022-12-08T14:14:45.774Z,100646.59
2022-12-08T14:17:13.995Z,100649.59
2022-12-08T14:19:52.420Z,100652.97
2022-12-08T14:22:18.991Z,100650.97
2022-12-08T14:24:47.999Z,100654.78
2022-12-08T14:27:23.812Z,100650.59
2022-12-08T14:29:56.812Z,100644.94
2022-12-08T14:32:30.047Z,100652.91
2022-12-08T14:35:01.442Z,100643.88
2022-12-08T14:37:33.692Z,100647.53
2022-12-08T14:40:07.673Z,100654.72
2022-12-08T14:42:43.755Z,100655.53
2022-12-08T14:45:13.591Z,100655.19
2022-12-08T14:47:40.599Z,100651.34
2022-12-08T14:50:38.414Z,100651.16
2022-12-08T14:53:11.983Z,100646.25
2022-12-08T14:55:38.513Z,100645.50
2022-12-08T14:58:05.295Z,100642.63
2022-12-08T15:00:31.753Z,100643.44
2022-12-08T15:02:58.288Z,100644.81
2022-12-08T15:05:30.542Z,100636.53
2022-12-08T15:08:03.201Z,100646.34
2022-12-08T15:10:33.153Z,100646.34
2022-12-08T15:13:08.739Z,100642.84
2022-12-08T15:15:53.193Z,100637.69
2022-12-08T15:18:34.614Z,100639.28
2022-12-08T15:21:04.648Z,100642.09
2022-12-08T15:23:42.592Z,100634.56
2022-12-08T15:26:10.164Z,100633.75
2022-12-08T15:28:36.552Z,100633.75
2022-12-08T15:31:03.076Z,100628.59
2022-12-08T15:33:29.556Z,100629.41
2022-12-08T15:35:55.961Z,100635.41
2022-12-08T15:38:25.848Z,100637.41
2022-12-08T15:40:53.295Z,100641.91
2022-12-08T15:43:20.295Z,100637.41
2022-12-08T15:45:57.871Z,100637.22
2022-12-08T15:48:28.044Z,100643.25
2022-12-08T15:50:55.957Z,100643.25
2022-12-08T15:53:22.558Z,100644.75
2022-12-08T15:56:18.982Z,100643.44
2022-12-08T15:58:54.090Z,100643.94
2022-12-08T16:01:22.090Z,100634.28
2022-12-08T16:09:31.116Z,100656.84
2022-12-08T16:12:16.453Z,100661.47
2022-12-08T16:17:31.195Z,100652.13
2022-12-08T16:19:58.118Z,100645.47
2022-12-08T16:22:52.737Z,100641.81
2022-12-08T16:25:20.761Z,100634.56
2022-12-08T16:28:01.184Z,100630.94
2022-12-08T16:30:28.104Z,100624.09
2022-12-08T16:32:54.525Z,100634.38
2022-12-08T16:35:20.880Z,100629.50
2022-12-08T16:37:48.438Z,100639.50
2022-12-08T16:40:15.161Z,100640.13
2022-12-08T16:42:43.520Z,100638.31
2022-12-08T16:45:22.540Z,100632.00
2022-12-08T16:47:54.537Z,100631.16
2022-12-08T16:50:32.398Z,100638.75
2022-12-08T16:53:00.622Z,100644.09
2022-12-08T16:55:27.217Z,100641.28
2022-12-08T16:57:54.332Z,100640.44
2022-12-08T17:00:23.622Z,100635.78
2022-12-08T17:02:50.992Z,100633.53
2022-12-08T17:05:20.290Z,100635.22
2022-12-08T17:07:48.799Z,100637.19
2022-12-08T17:10:18.681Z,100633.88
2022-12-08T17:12:45.452Z,100643.47
2022-12-08T17:15:15.018Z,100642.13
2022-12-08T17:17:41.689Z,100634.44
2022-12-08T17:20:14.701Z,100634.06
2022-12-08T17:22:41.133Z,100636.38
2022-12-08T17:25:08.239Z,100627.69
2022-12-08T17:27:35.797Z,100629.22
2022-12-08T17:30:02.408Z,100638.25
2022-12-08T17:32:28.951Z,100639.94
2022-12-08T17:34:55.450Z,100633.78
2022-12-08T17:37:21.887Z,100627.91
2022-12-08T17:39:48.287Z,100634.69
2022-12-08T17:42:14.647Z,100626.88
2022-12-08T17:44:41.089Z,100625.19
2022-12-08T17:47:07.512Z,100626.03
2022-12-08T17:49:33.989Z,100627.88
2022-12-08T17:52:04.580Z,100624.38
2022-12-08T17:54:31.285Z,100625.34
2022-12-08T17:56:58.731Z,100628.34
2022-12-08T17:59:27.501Z,100626.81
2022-12-08T18:01:55.398Z,100628.94
2022-12-08T18:04:22.013Z,100625.38
2022-12-08T18:06:48.644Z,100625.69
2022-12-08T18:09:15.691Z,100625.56
2022-12-08T18:11:43.347Z,100634.91
2022-12-08T18:14:11.009Z,100627.06
2022-12-08T18:16:39.497Z,100626.53
2022-12-08T18:19:06.616Z,100631.00
2022-12-08T18:21:33.785Z,100631.19
2022-12-08T18:24:00.542Z,100632.31
2022-12-08T18:26:27.501Z,100636.97
2022-12-08T18:28:53.908Z,100633.63
2022-12-08T18:31:21.786Z,100630.59
2022-12-08T18:33:49.257Z,100639.41
2022-12-08T18:36:19.498Z,100640.41
2022-12-08T18:38:46.043Z,100631.88
2022-12-08T18:41:19.582Z,100632.03
2022-12-08T18:43:46.557Z,100625.19
2022-12-08T18:46:14.376Z,100633.47
2022-12-08T18:48:43.886Z,100630.28
2022-12-08T18:51:11.955Z,100646.56
2022-12-08T18:53:39.599Z,100645.72
2022-12-08T18:56:06.788Z,100649.25
2022-12-08T18:58:34.050Z,100648.25
2022-12-08T19:01:00.445Z,100651.03
2022-12-08T19:03:26.907Z,100647.53
2022-12-08T19:06:04.113Z,100652.88
2022-12-08T19:08:31.727Z,100642.22
2022-12-08T19:10:58.872Z,100641.38
2022-12-08T19:13:25.470Z,100642.56
2022-12-08T19:15:52.027Z,100648.16
2022-12-08T19:18:18.569Z,100651.13
2022-12-08T19:20:44.945Z,100645.81
2022-12-08T19:23:15.067Z,100645.63
2022-12-08T19:25:41.644Z,100654.78
2022-12-08T19:28:08.104Z,100653.41
2022-12-08T19:30:34.593Z,100653.69
2022-12-08T19:33:01.002Z,100655.66
2022-12-08T19:35:27.369Z,100662.97
2022-12-08T19:37:54.959Z,100659.59
2022-12-08T19:40:40.145Z,100656.94
2022-12-08T19:43:34.422Z,100665.91
2022-12-08T19:46:00.942Z,100667.59
2022-12-08T19:48:27.876Z,100672.78
2022-12-08T19:50:54.278Z,100664.09
2022-12-08T19:53:20.915Z,100671.41
2022-12-08T19:55:47.867Z,100667.22
2022-12-08T19:58:14.331Z,100664.84
2022-12-08T20:00:41.645Z,100674.63
2022-12-08T20:03:08.380Z,100675.19
2022-12-08T20:05:36.485Z,100674.88
2022-12-08T20:08:03.221Z,100678.22
2022-12-08T20:10:35.144Z,100678.09
2022-12-08T20:13:20.315Z,100675.44
2022-12-08T20:15:46.994Z,100682.25
2022-12-08T20:18:15.019Z,100675.81
2022-12-08T20:20:43.055Z,100675.81
2022-12-08T20:23:10.086Z,100688.13
2022-12-08T20:25:40.076Z,100693.75
2022-12-08T20:28:07.089Z,100695.88
2022-12-08T20:30:33.858Z,100702.59
2022-12-08T20:33:00.266Z,100705.28
2022-12-08T20:35:27.127Z,100702.47
2022-12-08T20:37:53.544Z,100696.16
2022-12-08T20:40:20.594Z,100694.88
2022-12-08T20:42:47.026Z,100697.38
2022-12-08T20:45:13.403Z,100697.25
2022-12-08T20:47:39.850Z,100691.94
2022-12-08T20:50:07.586Z,100702.25
2022-12-08T20:52:34.238Z,100703.94
2022-12-08T20:55:00.672Z,100703.78
2022-12-08T20:57:27.171Z,100695.97
2022-12-08T20:59:53.659Z,100697.91
2022-12-08T21:02:20.240Z,100703.94
2022-12-08T21:04:46.859Z,100712.31
2022-12-08T21:07:13.504Z,100707.69
2022-12-08T21:09:40.170Z,100697.72
2022-12-08T21:12:06.760Z,100710.84
2022-12-08T21:14:34.657Z,100707.78
2022-12-08T21:17:01.113Z,100704.25
2022-12-08T21:19:27.803Z,100704.41
2022-12-08T21:21:54.189Z,100706.91
2022-12-08T21:24:20.669Z,100709.28
2022-12-08T21:26:47.398Z,100701.28
2022-12-08T21:29:14.042Z,100705.63
2022-12-08T21:31:40.826Z,100713.59
2022-12-08T21:34:07.704Z,100709.13
2022-12-08T21:36:34.433Z,100714.31
2022-12-08T21:39:02.427Z,100723.94
2022-12-08T21:41:48.045Z,100713.47
2022-12-08T21:44:18.690Z,100716.13
2022-12-08T21:46:45.441Z,100715.28
2022-12-08T21:49:12.057Z,100714.47
2022-12-08T21:51:41.826Z,100712.75
2022-12-08T21:54:13.564Z,100716.41
2022-12-08T21:56:45.635Z,100719.25
2022-12-08T21:59:12.205Z,100718.41
2022-12-08T22:01:39.010Z,100717.25
2022-12-08T22:04:05.879Z,100726.47
2022-12-08T22:06:32.320Z,100723.66
2022-12-08T22:08:58.908Z,100723.94
2022-12-08T22:11:25.803Z,100721.66
2022-12-08T22:13:52.402Z,100716.50
2022-12-08T22:16:18.938Z,100726.47
2022-12-08T22:18:45.531Z,100722.56
2022-12-08T22:21:17.144Z,100731.56
2022-12-08T22:23:44.146Z,100730.84
2022-12-08T22:26:11.402Z,100731.47
2022-12-08T22:28:40.240Z,100735.31
2022-12-08T22:31:14.447Z,100743.00
2022-12-08T22:33:41.945Z,100736.41
2022-12-08T22:36:14.979Z,100742.78
2022-12-08T22:38:41.668Z,100731.00
2022-12-08T22:41:08.035Z,100732.38
2022-12-08T22:43:34.683Z,100737.41
2022-12-08T22:46:01.374Z,100742.28
2022-12-08T22:48:28.052Z,100727.31
2022-12-08T22:51:01.988Z,100729.81
2022-12-08T22:53:28.751Z,100731.47
2022-12-08T22:55:55.348Z,100734.47
2022-12-08T22:58:22.004Z,100725.47
2022-12-08T23:00:48.511Z,100735.13
2022-12-08T23:03:14.965Z,100730.63
2022-12-08T23:05:41.643Z,100720.16
2022-12-08T23:08:08.940Z,100723.50
2022-12-08T23:10:35.972Z,100718.16
2022-12-08T23:13:04.189Z,100709.66
2022-12-08T23:15:31.573Z,100712.19
2022-12-08T23:17:58.197Z,100707.84
2022-12-08T23:20:24.916Z,100692.56
2022-12-08T23:22:51.662Z,100703.72
2022-12-08T23:25:18.568Z,100698.25
2022-12-08T23:27:45.656Z,100708.06
2022-12-08T23:30:13.125Z,100700.63
2022-12-08T23:32:40.036Z,100705.78
2022-12-08T23:35:07.492Z,100691.50
2022-12-08T23:37:34.773Z,100696.81
2022-12-08T23:40:01.896Z,100681.00
2022-12-08T23:42:30.062Z,100692.47
2022-12-08T23:44:56.539Z,100696.13
2022-12-08T23:47:23.155Z,100691.97
2022-12-08T23:49:49.606Z,100689.59
2022-12-08T23:52:16.071Z,100694.91
2022-12-08T23:54:42.438Z,100695.91
2022-12-08T23:57:08.929Z,100689.34
2022-12-08T23:59:35.358Z,100687.16
